Startpagina
METAR-TAF:

METAR-TAF

Vliegvelden :

Armenia, Colombia

breedte: 04-30N, lengte: 075-43W, hoogte: 1204 m

Actueel weer

Dit bericht is 42 minuten geleden gemaakt, om 19:00 UTC
Wind 3 kt uit variabele richting
Temperatuur 27°C
Vochtigheid 54%
Druk 1016 hPa
Zicht 10 km of meer
Weinig wolken op 2000 ft, Stapelwolken.
Verspreide wolken op 2200 ft
Gebroken wolken op 8000 ft
buien in de omgeving

METAR: SKAR 191900Z VRB03KT 9999 VCSH FEW020TCU SCT022 BKN080 27/17 A3001 RMK TCU VCSH/NE/SE

Tijdstip: 14:42 (19:42 UTC)


TAF: ontbreekt

Waarnemingen en weersverwachtingen van meer dan 4000 vliegvelden (METAR en TAF).

De beschikbare stations zijn de gele en rode punten op de kaart.

Ga met uw muis naar het station om de naam te zien.

Klik dan om waarnemingen en weersverwachtingen te zien.

kaart wijzigen: klik op de groene knoppen met een zwart kruis om in te zoomen, op de groene knop met een streepje om uit te zoomen of op de groene pijlen voor aangrenzende kaarten.


METAR-TAF: